Time;durP1;ratioP1;P1;durP2;ratioP2;P2;SDS_P1;SDS_P2;PMS_P1;PMS_P2;Temp;Humidity;BMP_temperature;BMP_pressure;BME280_temperature;BME280_humidity;BME280_pressure;Samples;Min_cycle;Max_cycle;Signal;HPM_P1;HPM_P2
2023/05/18 00:02:00;;;;;;;9.27;2.00;;;8.40;99.90;;;;;;5077097;28;20048;-80
2023/05/18 00:04:27;;;;;;;7.38;2.20;;;8.40;99.90;;;;;;5077980;28;20127;-81
2023/05/18 00:06:55;;;;;;;8.73;2.33;;;8.40;99.90;;;;;;5077362;28;20049;-81
2023/05/18 00:09:33;;;;;;;9.07;2.08;;;8.50;99.90;;;;;;5077308;28;20048;-81
2023/05/18 00:12:00;;;;;;;7.95;1.92;;;8.50;99.90;;;;;;5077295;28;20083;-81
2023/05/18 00:14:29;;;;;;;6.65;1.90;;;8.50;99.90;;;;;;5075432;28;20059;-81
2023/05/18 00:16:55;;;;;;;7.30;2.20;;;8.60;99.90;;;;;;5077399;28;20044;-80
2023/05/18 00:19:22;;;;;;;6.05;1.75;;;8.50;99.90;;;;;;5077106;28;20040;-80
2023/05/18 00:21:50;;;;;;;8.95;1.80;;;8.50;99.90;;;;;;5076863;28;20048;-80
2023/05/18 00:24:16;;;;;;;6.05;2.00;;;8.50;99.90;;;;;;5075484;28;20051;-80
2023/05/18 00:26:44;;;;;;;6.93;1.75;;;8.60;99.90;;;;;;5076751;28;20245;-80
2023/05/18 00:29:11;;;;;;;4.97;1.70;;;8.70;99.90;;;;;;5076477;28;20491;-80
2023/05/18 00:31:38;;;;;;;6.95;1.42;;;8.80;99.90;;;;;;5076864;28;20098;-81
2023/05/18 00:34:13;;;;;;;8.13;1.70;;;8.90;99.90;;;;;;5076646;28;20040;-80
2023/05/18 00:36:40;;;;;;;5.70;2.08;;;8.90;99.90;;;;;;5075562;28;20388;-81
2023/05/18 00:39:14;;;;;;;4.82;1.85;;;8.90;99.90;;;;;;5076508;28;20067;-80
2023/05/18 00:41:46;;;;;;;7.03;1.98;;;8.90;99.90;;;;;;5076682;28;20099;-80
2023/05/18 00:44:18;;;;;;;13.38;2.97;;;8.90;99.90;;;;;;5076644;28;20139;-80
2023/05/18 00:46:43;;;;;;;6.53;1.45;;;8.90;99.90;;;;;;5075178;28;20048;-80
2023/05/18 00:49:10;;;;;;;7.72;1.75;;;8.90;99.90;;;;;;5075162;28;20040;-80
2023/05/18 00:51:36;;;;;;;7.07;2.33;;;9.00;99.90;;;;;;5076572;28;20036;-80
2023/05/18 00:54:03;;;;;;;6.45;1.80;;;9.00;99.90;;;;;;5075186;28;20057;-80
2023/05/18 00:56:32;;;;;;;8.82;2.28;;;9.00;99.90;;;;;;5075467;28;20080;-80
2023/05/18 00:59:01;;;;;;;6.88;1.83;;;9.00;99.90;;;;;;5076020;28;20051;-80
2023/05/18 01:01:28;;;;;;;8.90;2.00;;;9.10;99.90;;;;;;5074956;28;20051;-80
2023/05/18 01:04:01;;;;;;;6.28;1.67;;;9.00;99.90;;;;;;5074972;28;20124;-81
2023/05/18 01:06:28;;;;;;;4.87;1.63;;;9.00;99.90;;;;;;5074991;28;20476;-80
2023/05/18 01:08:54;;;;;;;7.75;1.83;;;8.90;99.90;;;;;;5075184;28;20913;-81
2023/05/18 01:11:46;;;;;;;6.20;1.77;;;8.90;99.90;;;;;;5075831;28;20059;-80
2023/05/18 01:14:38;;;;;;;8.38;1.85;;;8.90;99.90;;;;;;5075975;28;20122;-81
2023/05/18 01:17:18;;;;;;;8.20;2.10;;;8.90;99.90;;;;;;5075105;28;20047;-80
2023/05/18 01:19:50;;;;;;;5.35;1.75;;;8.90;99.90;;;;;;5075095;28;20049;-80
2023/05/18 01:22:51;;;;;;;13.55;2.10;;;8.90;99.90;;;;;;5074808;28;20480;-80
2023/05/18 01:25:30;;;;;;;6.30;2.10;;;8.80;99.90;;;;;;5062447;28;20099;-80
2023/05/18 01:28:05;;;;;;;10.85;1.95;;;8.80;99.90;;;;;;5075390;28;20511;-80
2023/05/18 01:30:34;;;;;;;6.22;1.88;;;8.70;99.90;;;;;;5075612;28;20561;-80
2023/05/18 01:33:05;;;;;;;6.88;1.90;;;8.70;99.90;;;;;;5075683;28;20058;-80
2023/05/18 01:35:30;;;;;;;6.80;1.73;;;8.70;99.90;;;;;;5075545;28;20495;-80
2023/05/18 01:37:56;;;;;;;7.43;1.98;;;8.70;99.90;;;;;;5075583;28;20044;-80
2023/05/18 01:40:24;;;;;;;6.50;2.05;;;8.70;99.90;;;;;;5075666;28;20086;-80
2023/05/18 01:42:58;;;;;;;6.57;1.75;;;8.70;99.90;;;;;;5075371;28;20061;-80
2023/05/18 01:45:27;;;;;;;5.65;1.70;;;8.60;99.90;;;;;;5075825;28;20059;-80
2023/05/18 01:47:57;;;;;;;6.05;2.08;;;8.50;99.90;;;;;;5074103;28;20128;-80
2023/05/18 01:50:36;;;;;;;5.45;1.88;;;8.60;99.90;;;;;;5075436;28;20084;-80
2023/05/18 01:53:13;;;;;;;11.05;2.63;;;8.50;99.90;;;;;;5075378;28;20044;-80
2023/05/18 01:55:40;;;;;;;11.18;2.20;;;8.60;99.90;;;;;;5075370;28;20044;-80
2023/05/18 01:58:07;;;;;;;6.07;1.65;;;8.60;99.90;;;;;;5073984;28;20396;-80
2023/05/18 02:00:36;;;;;;;8.93;1.92;;;8.60;99.90;;;;;;5075224;28;20036;-80
2023/05/18 02:03:02;;;;;;;7.45;2.45;;;8.60;99.90;;;;;;5075096;28;20451;-80
2023/05/18 02:05:28;;;;;;;7.25;2.33;;;8.60;99.90;;;;;;5075069;28;20080;-80
2023/05/18 02:07:54;;;;;;;5.38;1.77;;;8.60;99.90;;;;;;5075034;28;20040;-80
2023/05/18 02:10:20;;;;;;;10.73;2.20;;;8.60;99.90;;;;;;5075612;28;20041;-80
2023/05/18 02:12:51;;;;;;;10.27;2.38;;;8.60;99.90;;;;;;5073828;28;20419;-80
2023/05/18 02:15:17;;;;;;;8.27;2.28;;;8.50;99.90;;;;;;5074851;28;20040;-80
2023/05/18 02:17:42;;;;;;;5.75;1.80;;;8.50;99.90;;;;;;5074830;28;20527;-80
2023/05/18 02:20:09;;;;;;;8.57;2.40;;;8.40;99.90;;;;;;5074712;28;20476;-80
2023/05/18 02:22:36;;;;;;;10.88;2.22;;;8.50;99.90;;;;;;5073616;28;20415;-80
2023/05/18 02:25:03;;;;;;;4.07;1.90;;;8.40;99.90;;;;;;5073152;28;20403;-80
2023/05/18 02:27:30;;;;;;;6.80;2.08;;;8.40;99.90;;;;;;5073051;28;20048;-80
2023/05/18 02:29:56;;;;;;;8.18;2.00;;;8.50;99.90;;;;;;5074522;28;20052;-80
2023/05/18 02:32:22;;;;;;;6.25;2.45;;;8.40;99.90;;;;;;5073492;28;20404;-81
2023/05/18 02:34:51;;;;;;;7.82;1.70;;;8.50;99.90;;;;;;5073195;28;20519;-80
2023/05/18 02:37:17;;;;;;;9.75;2.28;;;8.50;99.90;;;;;;5074300;28;20086;-80
2023/05/18 02:39:43;;;;;;;17.02;2.30;;;8.50;99.90;;;;;;5074653;28;20040;-80
2023/05/18 02:42:08;;;;;;;9.02;2.30;;;8.50;99.90;;;;;;5074472;28;20040;-80
2023/05/18 02:44:34;;;;;;;9.50;2.38;;;8.50;99.90;;;;;;5073144;28;20452;-80
2023/05/18 02:47:00;;;;;;;10.40;2.33;;;8.50;99.90;;;;;;5073087;28;20052;-80
2023/05/18 02:49:26;;;;;;;7.72;2.08;;;8.40;99.90;;;;;;5073919;28;20044;-80
2023/05/18 02:51:52;;;;;;;6.05;1.58;;;8.40;99.90;;;;;;5074071;28;20479;-80
2023/05/18 02:54:17;;;;;;;8.32;3.55;;;8.40;99.90;;;;;;5072745;28;20037;-80
2023/05/18 02:56:43;;;;;;;6.18;2.33;;;8.40;99.90;;;;;;5074013;28;20094;-80
2023/05/18 02:59:09;;;;;;;10.15;1.83;;;8.30;99.90;;;;;;5074124;28;20050;-80
2023/05/18 03:01:36;;;;;;;8.10;2.45;;;8.30;99.90;;;;;;5072731;28;20539;-80
2023/05/18 03:04:02;;;;;;;12.27;2.30;;;8.30;99.90;;;;;;5072747;28;20055;-80
2023/05/18 03:06:30;;;;;;;5.72;2.03;;;8.30;99.90;;;;;;5072998;28;20491;-80
2023/05/18 03:08:56;;;;;;;7.90;2.47;;;8.20;99.90;;;;;;5072622;28;20048;-80
2023/05/18 03:11:23;;;;;;;11.65;2.30;;;8.20;99.90;;;;;;5072811;28;20067;-80
2023/05/18 03:13:49;;;;;;;6.18;2.20;;;8.20;99.90;;;;;;5073813;28;20556;-80
2023/05/18 03:16:15;;;;;;;5.82;2.42;;;8.20;99.90;;;;;;5073798;28;20048;-80
2023/05/18 03:18:40;;;;;;;11.30;2.63;;;8.20;99.90;;;;;;5074432;28;20040;-80
2023/05/18 03:21:06;;;;;;;6.68;2.15;;;8.20;99.90;;;;;;5073775;28;20093;-80
2023/05/18 03:23:33;;;;;;;11.18;2.47;;;8.10;99.90;;;;;;5072803;28;20483;-80
2023/05/18 03:26:01;;;;;;;4.75;2.28;;;8.10;99.90;;;;;;5072424;28;20408;-81
2023/05/18 03:28:28;;;;;;;6.20;2.40;;;8.10;99.90;;;;;;5072238;28;20060;-80
2023/05/18 03:30:54;;;;;;;6.75;2.78;;;8.10;99.90;;;;;;5073452;28;20517;-80
2023/05/18 03:33:20;;;;;;;8.13;2.38;;;8.00;99.90;;;;;;5072265;28;20583;-80
2023/05/18 03:35:47;;;;;;;7.03;2.40;;;8.10;99.90;;;;;;5073023;28;20503;-80
2023/05/18 03:38:12;;;;;;;7.13;2.55;;;8.00;99.90;;;;;;5072625;28;20037;-80
2023/05/18 03:40:38;;;;;;;7.10;2.33;;;8.00;99.90;;;;;;5071478;28;20403;-80
2023/05/18 03:43:04;;;;;;;8.15;2.42;;;8.00;99.90;;;;;;5073515;28;20395;-80
2023/05/18 03:45:31;;;;;;;8.10;2.85;;;8.00;99.90;;;;;;5073469;28;20048;-80
2023/05/18 03:47:57;;;;;;;10.20;2.45;;;8.00;99.90;;;;;;5073647;28;20040;-80
2023/05/18 03:50:22;;;;;;;9.93;2.67;;;8.00;99.90;;;;;;5073289;28;20052;-80
2023/05/18 03:52:51;;;;;;;14.32;2.97;;;8.00;99.90;;;;;;5073281;28;20043;-80
2023/05/18 03:55:20;;;;;;;10.13;2.90;;;8.00;99.90;;;;;;5073402;28;20044;-80
2023/05/18 03:57:46;;;;;;;8.10;2.35;;;8.00;99.90;;;;;;5073321;28;20044;-80
2023/05/18 04:00:12;;;;;;;8.93;2.10;;;7.90;99.90;;;;;;5071984;28;20056;-80
2023/05/18 04:02:38;;;;;;;8.80;2.65;;;7.90;99.90;;;;;;5073271;28;20041;-80
2023/05/18 04:05:07;;;;;;;11.20;2.72;;;8.00;99.90;;;;;;5073176;28;20079;-80
2023/05/18 04:07:33;;;;;;;9.85;2.60;;;7.90;99.90;;;;;;5073286;28;20045;-80
2023/05/18 04:09:58;;;;;;;7.60;2.10;;;8.00;99.90;;;;;;5073090;28;20041;-80
2023/05/18 04:12:24;;;;;;;6.63;2.40;;;7.90;99.90;;;;;;5073000;28;20070;-80
2023/05/18 04:14:50;;;;;;;9.13;2.53;;;8.00;99.90;;;;;;5072914;28;20082;-80
2023/05/18 04:17:22;;;;;;;4.90;2.55;;;7.90;99.90;;;;;;5072904;28;20049;-80
2023/05/18 04:19:51;;;;;;;6.80;2.85;;;8.00;99.90;;;;;;5073173;28;20149;-80
2023/05/18 04:22:20;;;;;;;9.68;2.38;;;8.00;99.90;;;;;;5055005;28;20498;-80
2023/05/18 04:24:47;;;;;;;7.93;2.22;;;8.00;99.90;;;;;;5072784;28;20063;-80
2023/05/18 04:27:14;;;;;;;9.13;2.42;;;8.10;99.90;;;;;;5072866;28;20412;-79
2023/05/18 04:29:42;;;;;;;5.72;2.10;;;8.00;99.90;;;;;;5073009;28;20048;-80
2023/05/18 04:32:09;;;;;;;11.25;2.50;;;8.00;99.90;;;;;;5071735;28;20510;-80
2023/05/18 04:34:36;;;;;;;9.88;2.85;;;8.00;99.90;;;;;;5071597;28;20158;-80
2023/05/18 04:37:09;;;;;;;12.30;3.05;;;8.10;99.90;;;;;;5073062;28;20051;-80
2023/05/18 04:39:38;;;;;;;8.23;3.00;;;8.10;99.90;;;;;;5072992;28;20044;-80
2023/05/18 04:42:04;;;;;;;11.27;3.00;;;8.20;99.90;;;;;;5071566;28;20074;-80
2023/05/18 04:44:34;;;;;;;11.73;2.25;;;8.20;99.90;;;;;;5071399;28;20526;-80
2023/05/18 04:47:00;;;;;;;7.50;2.72;;;8.20;99.90;;;;;;5073141;28;20048;-80
2023/05/18 04:49:27;;;;;;;9.68;2.60;;;8.30;99.90;;;;;;5076467;28;20045;-80
2023/05/18 04:51:54;;;;;;;10.70;2.90;;;8.30;99.90;;;;;;5076170;28;20377;-79
2023/05/18 04:54:29;;;;;;;10.75;2.63;;;8.30;99.90;;;;;;5075157;28;20052;-80
2023/05/18 04:56:56;;;;;;;8.63;2.70;;;8.30;99.90;;;;;;5076392;28;20036;-80
2023/05/18 04:59:25;;;;;;;9.23;2.83;;;8.30;99.90;;;;;;5075117;28;20463;-80
2023/05/18 05:01:57;;;;;;;10.30;3.13;;;8.40;99.90;;;;;;5076373;28;20076;-80
2023/05/18 05:04:23;;;;;;;9.02;3.13;;;8.40;99.90;;;;;;5076117;28;20434;-80
2023/05/18 05:06:49;;;;;;;11.27;3.25;;;8.50;99.90;;;;;;5075889;28;20498;-80
2023/05/18 05:09:15;;;;;;;7.00;2.72;;;8.50;99.90;;;;;;5076004;28;20105;-80
2023/05/18 05:11:43;;;;;;;8.10;2.70;;;8.50;99.90;;;;;;5075929;28;20072;-80
2023/05/18 05:14:09;;;;;;;9.38;2.97;;;8.60;99.90;;;;;;5075841;28;20048;-80
2023/05/18 05:16:35;;;;;;;8.10;2.60;;;8.60;99.90;;;;;;5075896;28;20043;-80
2023/05/18 05:19:01;;;;;;;9.68;2.85;;;8.70;99.90;;;;;;5074752;28;20041;-80
2023/05/18 05:21:27;;;;;;;7.78;2.38;;;8.70;99.90;;;;;;5075856;28;20040;-80
2023/05/18 05:23:53;;;;;;;7.53;2.30;;;8.70;99.90;;;;;;5074550;28;20131;-80
2023/05/18 05:26:22;;;;;;;11.00;2.97;;;8.80;99.90;;;;;;5074179;28;20124;-80
2023/05/18 05:28:48;;;;;;;10.38;2.70;;;8.80;99.90;;;;;;5075810;28;20048;-80
2023/05/18 05:31:14;;;;;;;9.63;3.00;;;8.80;99.90;;;;;;5075676;28;20036;-80
2023/05/18 05:33:44;;;;;;;8.38;2.47;;;8.90;99.90;;;;;;5075598;28;20446;-80
2023/05/18 05:36:09;;;;;;;7.90;2.65;;;8.90;99.90;;;;;;5075723;28;20052;-80
2023/05/18 05:38:35;;;;;;;10.70;2.75;;;8.90;99.90;;;;;;5075381;28;20039;-80
2023/05/18 05:41:01;;;;;;;5.60;2.45;;;9.00;99.90;;;;;;5075562;28;20088;-80
2023/05/18 05:43:27;;;;;;;5.20;2.00;;;9.00;99.90;;;;;;5074150;28;20128;-80
2023/05/18 05:45:53;;;;;;;14.55;2.75;;;9.10;99.90;;;;;;5075414;28;20086;-80
2023/05/18 05:48:19;;;;;;;6.70;2.42;;;9.10;99.90;;;;;;5075158;28;20404;-81
2023/05/18 05:50:45;;;;;;;6.13;2.42;;;9.20;99.90;;;;;;5075129;28;20116;-81
2023/05/18 05:53:10;;;;;;;7.22;2.28;;;9.20;99.90;;;;;;5075169;28;20443;-81
2023/05/18 05:55:42;;;;;;;8.15;2.90;;;9.20;99.90;;;;;;5075279;28;20037;-81
2023/05/18 05:58:08;;;;;;;6.80;2.70;;;9.30;99.90;;;;;;5074861;28;20080;-81
2023/05/18 06:00:34;;;;;;;8.18;2.40;;;9.30;99.90;;;;;;5068695;28;20099;-79
2023/05/18 06:02:59;;;;;;;8.10;2.70;;;9.40;99.90;;;;;;5063417;28;20045;-81
2023/05/18 06:05:25;;;;;;;6.10;2.40;;;9.40;99.90;;;;;;5055043;28;20060;-79
2023/05/18 06:07:51;;;;;;;6.57;1.95;;;9.50;99.90;;;;;;5054822;28;20072;-80
2023/05/18 06:10:17;;;;;;;8.73;2.60;;;9.50;99.90;;;;;;5054814;28;20501;-82
2023/05/18 06:12:45;;;;;;;12.18;2.75;;;9.60;99.90;;;;;;5087070;28;20128;-80
2023/05/18 06:15:11;;;;;;;13.23;2.78;;;9.50;99.90;;;;;;5054523;28;20076;-79
2023/05/18 06:17:37;;;;;;;12.13;3.35;;;9.60;99.90;;;;;;5054354;28;20400;-80
2023/05/18 06:20:07;;;;;;;7.50;2.53;;;9.70;99.90;;;;;;5054699;28;20041;-79
2023/05/18 06:22:33;;;;;;;8.43;2.10;;;9.60;99.90;;;;;;5054535;28;20525;-79
2023/05/18 06:24:59;;;;;;;5.32;2.17;;;9.70;99.90;;;;;;5053343;28;20393;-80
2023/05/18 06:27:28;;;;;;;7.93;3.40;;;9.70;99.90;;;;;;5053645;28;20511;-79
2023/05/18 06:29:54;;;;;;;6.82;2.50;;;9.70;99.90;;;;;;5054519;28;20049;-79
2023/05/18 06:32:20;;;;;;;8.82;2.67;;;9.80;99.90;;;;;;5052977;28;20059;-79
2023/05/18 06:34:50;;;;;;;11.80;2.95;;;9.80;99.90;;;;;;5055132;28;20416;-80
2023/05/18 06:37:20;;;;;;;10.63;2.30;;;9.80;99.90;;;;;;5053037;28;20124;-80
2023/05/18 06:39:45;;;;;;;7.63;2.63;;;9.90;99.90;;;;;;5054331;28;20056;-80
2023/05/18 06:42:11;;;;;;;4.95;1.90;;;9.90;99.90;;;;;;5052533;28;20057;-81
2023/05/18 06:44:37;;;;;;;7.18;2.30;;;9.90;99.90;;;;;;5054372;28;20049;-80
2023/05/18 06:47:02;;;;;;;6.40;2.10;;;10.00;99.90;;;;;;5054189;28;20581;-80
2023/05/18 06:49:28;;;;;;;9.15;2.70;;;10.00;99.90;;;;;;5053855;28;20049;-81
2023/05/18 06:51:57;;;;;;;10.45;2.95;;;9.90;99.90;;;;;;5054127;28;20044;-80
2023/05/18 06:54:22;;;;;;;6.82;2.70;;;10.00;99.90;;;;;;5052485;28;20051;-80
2023/05/18 06:56:49;;;;;;;10.57;3.50;;;10.10;99.90;;;;;;5053789;28;20056;-80
2023/05/18 06:59:15;;;;;;;8.48;2.03;;;10.20;99.90;;;;;;5053643;28;20055;-80
2023/05/18 07:01:41;;;;;;;6.72;2.80;;;10.20;99.90;;;;;;5053886;28;20041;-82
2023/05/18 07:04:06;;;;;;;11.82;2.58;;;10.30;99.90;;;;;;5053605;28;20071;-81
2023/05/18 07:06:32;;;;;;;10.82;2.33;;;10.30;99.90;;;;;;5053630;28;20540;-80
2023/05/18 07:08:58;;;;;;;6.53;2.10;;;10.30;99.90;;;;;;5053392;28;20049;-81
2023/05/18 07:11:24;;;;;;;11.00;3.17;;;10.50;99.90;;;;;;5052626;28;20053;-81
2023/05/18 07:13:50;;;;;;;7.05;1.80;;;10.60;99.90;;;;;;5085623;28;20055;-81
2023/05/18 07:16:18;;;;;;;6.80;1.98;;;10.70;99.90;;;;;;5053611;28;20051;-81
2023/05/18 07:18:44;;;;;;;8.15;1.77;;;10.80;99.90;;;;;;5052100;28;20052;-80
2023/05/18 07:21:10;;;;;;;8.95;2.30;;;10.90;99.90;;;;;;5053356;28;20044;-80
2023/05/18 07:23:36;;;;;;;9.52;2.22;;;10.90;99.90;;;;;;5085561;28;20087;-80
2023/05/18 07:26:01;;;;;;;9.65;2.28;;;10.80;99.90;;;;;;5053380;28;20047;-80
2023/05/18 07:28:29;;;;;;;11.82;2.30;;;10.80;99.90;;;;;;5052785;28;20076;-80
2023/05/18 07:30:57;;;;;;;10.85;2.13;;;10.90;99.90;;;;;;5052202;28;20045;-80
2023/05/18 07:33:23;;;;;;;5.40;2.10;;;11.00;99.90;;;;;;5052111;28;20053;-81
2023/05/18 07:35:49;;;;;;;9.23;2.50;;;11.30;99.90;;;;;;5053409;28;20051;-80
2023/05/18 07:38:17;;;;;;;9.07;2.65;;;11.50;99.90;;;;;;5053060;28;20042;-81
2023/05/18 07:40:43;;;;;;;9.65;3.38;;;11.60;99.90;;;;;;5052122;28;20055;-80
2023/05/18 07:43:09;;;;;;;4.68;2.17;;;11.50;99.90;;;;;;5052983;28;20041;-81
2023/05/18 07:45:34;;;;;;;5.78;2.30;;;11.70;99.90;;;;;;5053367;28;20132;-81
2023/05/18 07:48:00;;;;;;;5.30;2.60;;;11.90;99.90;;;;;;5053129;28;20550;-81
2023/05/18 07:50:28;;;;;;;6.93;2.65;;;12.20;99.90;;;;;;5053131;28;20068;-80
2023/05/18 07:52:54;;;;;;;8.60;2.42;;;12.40;99.90;;;;;;5052900;28;20404;-80
2023/05/18 07:55:23;;;;;;;7.55;2.88;;;12.50;99.90;;;;;;5051921;28;20048;-81
2023/05/18 07:57:51;;;;;;;6.55;1.95;;;12.70;99.90;;;;;;5053314;28;20171;-82
2023/05/18 08:00:20;;;;;;;7.75;2.67;;;12.90;99.90;;;;;;5053125;28;20045;-81
2023/05/18 08:02:46;;;;;;;8.20;2.30;;;13.00;99.90;;;;;;5052984;28;20450;-81
2023/05/18 08:05:12;;;;;;;7.68;2.00;;;12.90;99.90;;;;;;5052851;28;20037;-81
2023/05/18 08:07:37;;;;;;;9.68;2.03;;;13.00;99.90;;;;;;5051590;28;20131;-81
2023/05/18 08:10:04;;;;;;;6.15;1.90;;;13.30;99.90;;;;;;5052701;28;20511;-81
2023/05/18 08:12:29;;;;;;;8.00;1.88;;;13.70;99.90;;;;;;5053166;28;20126;-81
2023/05/18 08:14:55;;;;;;;10.00;2.42;;;13.90;99.90;;;;;;5052805;28;20077;-81
2023/05/18 08:17:21;;;;;;;5.88;2.50;;;14.30;99.90;;;;;;5051589;28;20460;-81
2023/05/18 08:19:47;;;;;;;10.13;2.00;;;14.50;99.90;;;;;;5052764;28;20041;-81
2023/05/18 08:22:16;;;;;;;12.02;2.40;;;14.50;99.90;;;;;;5055400;28;20048;-82
2023/05/18 08:24:41;;;;;;;9.68;2.08;;;14.50;99.90;;;;;;5056548;28;20399;-82
2023/05/18 08:27:10;;;;;;;11.80;2.40;;;14.50;99.90;;;;;;5056597;28;20131;-82
2023/05/18 08:29:36;;;;;;;14.82;2.20;;;14.40;99.90;;;;;;5056426;28;20498;-81
2023/05/18 08:32:06;;;;;;;9.23;2.40;;;14.60;99.90;;;;;;5056679;28;20033;-81
2023/05/18 08:34:32;;;;;;;11.52;2.40;;;13.90;99.90;;;;;;5056533;28;20439;-81
2023/05/18 08:36:59;;;;;;;6.53;1.88;;;13.60;99.90;;;;;;5055445;28;20052;-83
2023/05/18 08:39:30;;;;;;;5.97;1.88;;;13.60;99.90;;;;;;5054969;28;20060;-82
2023/05/18 08:42:11;;;;;;;9.63;2.30;;;13.70;99.90;;;;;;5055291;28;20103;-79
2023/05/18 08:44:48;;;;;;;8.02;2.20;;;13.70;99.90;;;;;;5056551;28;20037;-81
2023/05/18 08:47:16;;;;;;;11.80;2.30;;;13.70;99.90;;;;;;5054979;28;20404;-82
2023/05/18 08:49:42;;;;;;;6.60;2.10;;;13.80;99.90;;;;;;5054839;28;20044;-81
2023/05/18 08:52:08;;;;;;;8.70;2.15;;;13.60;99.90;;;;;;5054868;28;20059;-81
2023/05/18 08:54:36;;;;;;;8.68;2.30;;;13.80;99.90;;;;;;5056043;28;20508;-81
2023/05/18 08:57:07;;;;;;;11.95;2.47;;;13.90;99.90;;;;;;5054730;28;20037;-81
2023/05/18 08:59:38;;;;;;;6.80;1.83;;;14.00;99.90;;;;;;5055969;28;20492;-81
2023/05/18 09:02:04;;;;;;;7.10;2.35;;;14.20;99.90;;;;;;5055981;28;20053;-81
2023/05/18 09:04:33;;;;;;;12.57;2.58;;;14.10;99.90;;;;;;5054679;28;20102;-81
2023/05/18 09:07:01;;;;;;;11.82;2.20;;;14.20;99.90;;;;;;5054458;28;20519;-81
2023/05/18 09:09:29;;;;;;;13.05;2.40;;;14.20;99.90;;;;;;5054507;28;20115;-82
2023/05/18 09:11:56;;;;;;;7.55;2.10;;;14.00;99.90;;;;;;5055774;28;20053;-81
2023/05/18 09:14:24;;;;;;;10.38;2.35;;;14.00;99.90;;;;;;5055645;28;20045;-81
2023/05/18 09:16:52;;;;;;;6.03;1.90;;;14.00;99.90;;;;;;5055903;28;20047;-81
2023/05/18 09:19:18;;;;;;;9.52;2.80;;;14.00;99.90;;;;;;5054310;28;20068;-81
2023/05/18 09:21:44;;;;;;;6.53;2.65;;;14.10;99.90;;;;;;5070919;28;20480;-81
2023/05/18 09:24:10;;;;;;;7.60;2.20;;;14.20;99.90;;;;;;5055754;28;20106;-81
2023/05/18 09:26:37;;;;;;;7.88;2.13;;;14.50;99.90;;;;;;5055525;28;20049;-81
2023/05/18 09:29:16;;;;;;;3.83;2.00;;;14.90;99.90;;;;;;5055268;28;20500;-81
2023/05/18 09:31:41;;;;;;;10.60;2.00;;;15.10;99.90;;;;;;5055310;28;20476;-81
2023/05/18 09:34:07;;;;;;;12.23;2.55;;;15.40;99.90;;;;;;5053432;28;20094;-82
2023/05/18 09:36:33;;;;;;;9.65;2.85;;;15.50;99.90;;;;;;5060026;28;20049;-81
2023/05/18 09:38:59;;;;;;;7.50;2.20;;;15.50;99.90;;;;;;5048765;28;20053;-80
2023/05/18 09:41:26;;;;;;;9.05;2.47;;;15.30;99.90;;;;;;5063905;28;20041;-77
2023/05/18 09:43:53;;;;;;;9.32;2.30;;;15.40;99.90;;;;;;5059068;28;20037;-82
2023/05/18 09:46:19;;;;;;;5.50;2.10;;;15.60;99.90;;;;;;5075428;28;20479;-80
2023/05/18 09:48:51;;;;;;;8.43;2.17;;;15.50;99.90;;;;;;5075179;28;20044;-80
2023/05/18 09:51:17;;;;;;;10.60;2.20;;;15.30;99.90;;;;;;5075324;28;20037;-79
2023/05/18 09:53:53;;;;;;;5.93;2.20;;;15.40;99.90;;;;;;5059971;28;20048;-78
2023/05/18 09:56:20;;;;;;;10.75;2.33;;;15.50;99.90;;;;;;5053974;28;20548;-79
2023/05/18 09:58:46;;;;;;;10.55;2.00;;;15.40;99.90;;;;;;5054853;28;20431;-81
2023/05/18 10:01:12;;;;;;;8.60;2.33;;;14.90;99.90;;;;;;5055024;28;20041;-81
2023/05/18 10:03:40;;;;;;;8.02;2.45;;;14.70;99.90;;;;;;5054987;28;20044;-79
2023/05/18 10:06:08;;;;;;;8.65;2.05;;;14.70;99.90;;;;;;5054769;28;20489;-81
2023/05/18 10:08:35;;;;;;;7.40;1.85;;;14.40;99.90;;;;;;5054561;28;20136;-81
2023/05/18 10:11:02;;;;;;;9.40;1.80;;;14.10;99.90;;;;;;5053649;28;20066;-81
2023/05/18 10:13:30;;;;;;;10.50;2.15;;;14.50;99.90;;;;;;5054784;28;20037;-81
2023/05/18 10:15:58;;;;;;;11.00;2.42;;;14.80;99.90;;;;;;5053517;28;20041;-82
2023/05/18 10:18:26;;;;;;;9.95;2.22;;;14.60;99.90;;;;;;5054740;28;20053;-82
2023/05/18 10:20:56;;;;;;;9.13;2.17;;;14.40;99.90;;;;;;5053198;28;20041;-82
2023/05/18 10:23:23;;;;;;;12.32;2.40;;;14.30;99.90;;;;;;5054624;28;20079;-78
2023/05/18 10:25:51;;;;;;;9.80;1.98;;;14.50;99.90;;;;;;5054310;28;20053;-83
2023/05/18 10:28:27;;;;;;;8.07;2.33;;;14.20;99.90;;;;;;5054068;28;20048;-82
2023/05/18 10:30:56;;;;;;;12.23;2.20;;;14.30;99.90;;;;;;5054544;28;20045;-82
2023/05/18 10:33:24;;;;;;;8.05;2.17;;;14.40;99.90;;;;;;5054467;28;20037;-82
2023/05/18 10:35:51;;;;;;;8.57;2.70;;;13.80;99.90;;;;;;5053091;28;20041;-76
2023/05/18 10:38:27;;;;;;;8.27;1.98;;;13.60;99.90;;;;;;5054102;28;20516;-81
2023/05/18 10:40:59;;;;;;;6.13;2.28;;;14.00;99.90;;;;;;5054049;28;20446;-80
2023/05/18 10:43:26;;;;;;;8.82;2.40;;;13.90;99.90;;;;;;5053064;28;20389;-81
2023/05/18 10:45:57;;;;;;;12.52;2.67;;;14.30;99.90;;;;;;5051944;28;20061;-80
2023/05/18 10:48:23;;;;;;;10.57;2.60;;;14.30;99.90;;;;;;5053842;28;20087;-80
2023/05/18 10:50:52;;;;;;;7.15;1.90;;;14.40;99.90;;;;;;5052944;28;20052;-81
2023/05/18 10:53:20;;;;;;;10.30;2.97;;;14.20;99.90;;;;;;5053824;28;20095;-81
2023/05/18 10:55:47;;;;;;;10.57;2.58;;;14.60;99.90;;;;;;5035987;28;20041;-82
2023/05/18 10:58:15;;;;;;;10.80;2.80;;;14.40;99.90;;;;;;5052521;28;20080;-81
2023/05/18 11:00:45;;;;;;;11.75;2.55;;;14.70;99.90;;;;;;5053718;28;20041;-81
2023/05/18 11:03:12;;;;;;;11.07;2.40;;;14.40;99.90;;;;;;5052316;28;20102;-80
2023/05/18 11:05:39;;;;;;;7.97;2.75;;;14.40;99.90;;;;;;5086268;28;20055;-79
2023/05/18 11:08:05;;;;;;;10.63;2.20;;;14.40;99.90;;;;;;5053761;28;20045;-79
2023/05/18 11:10:39;;;;;;;7.32;2.10;;;14.30;99.90;;;;;;5052531;28;20063;-80
2023/05/18 11:13:06;;;;;;;13.35;2.30;;;14.40;99.90;;;;;;5085953;28;20045;-83
2023/05/18 11:15:50;;;;;;;8.48;2.40;;;14.60;99.90;;;;;;5052426;28;20045;-82
2023/05/18 11:18:16;;;;;;;8.82;2.13;;;14.80;99.90;;;;;;5053666;28;20045;-81
2023/05/18 11:20:45;;;;;;;6.95;1.70;;;14.80;99.90;;;;;;5053686;28;20128;-82
2023/05/18 11:23:15;;;;;;;7.18;2.17;;;14.80;99.90;;;;;;5053599;28;20044;-81
2023/05/18 11:25:44;;;;;;;6.95;1.95;;;14.90;99.90;;;;;;5052259;28;20064;-85
2023/05/18 11:28:12;;;;;;;7.38;2.45;;;15.20;99.90;;;;;;5052961;28;20053;-82
2023/05/18 11:30:40;;;;;;;10.98;2.38;;;15.40;99.90;;;;;;5053542;28;20098;-81
2023/05/18 11:33:14;;;;;;;9.63;2.55;;;15.50;99.90;;;;;;5053594;28;20048;-81
2023/05/18 11:36:07;;;;;;;10.02;2.50;;;15.60;99.90;;;;;;5053336;28;20056;-82
2023/05/18 11:38:49;;;;;;;;;;;15.70;99.90;;;;;;5086178;28;20064;-83
2023/05/18 11:41:35;;;;;;;10.80;2.45;;;15.80;99.90;;;;;;5085427;28;19921;-82
2023/05/18 11:44:16;;;;;;;7.63;2.05;;;15.60;99.90;;;;;;5053253;28;20063;-81
2023/05/18 11:46:55;;;;;;;10.68;2.55;;;15.90;99.90;;;;;;5085404;28;20080;-80
2023/05/18 11:49:45;;;;;;;10.05;2.85;;;15.90;99.90;;;;;;5051752;28;20080;-80
2023/05/18 11:52:24;;;;;;;8.70;1.88;;;15.80;99.90;;;;;;5050822;28;20084;-84
2023/05/18 11:54:57;;;;;;;8.90;1.95;;;16.00;99.90;;;;;;5050378;28;20099;-83
2023/05/18 11:57:32;;;;;;;11.85;2.42;;;15.80;99.90;;;;;;5054994;28;20051;-84
2023/05/18 12:00:00;;;;;;;9.88;2.53;;;15.40;99.90;;;;;;5056982;28;20041;-84
2023/05/18 12:02:32;;;;;;;12.00;2.08;;;15.60;99.90;;;;;;5057496;28;20171;-86
2023/05/18 12:04:59;;;;;;;8.35;2.75;;;15.60;99.90;;;;;;5057364;28;20056;-86
2023/05/18 12:07:30;;;;;;;6.40;2.28;;;15.80;99.90;;;;;;5089670;28;20049;-85
2023/05/18 12:10:16;;;;;;;10.60;2.70;;;15.70;99.90;;;;;;5057253;28;20045;-82
2023/05/18 12:12:42;;;;;;;8.45;2.08;;;15.30;99.90;;;;;;5056248;28;20056;-82
2023/05/18 12:15:10;;;;;;;9.82;2.00;;;15.40;99.90;;;;;;5057178;28;20045;-82
2023/05/18 12:17:49;;;;;;;6.63;2.35;;;15.30;99.90;;;;;;5056912;28;20119;-81
2023/05/18 12:20:26;;;;;;;6.22;1.92;;;14.90;99.90;;;;;;5057081;28;20051;-82
2023/05/18 12:22:54;;;;;;;8.40;2.28;;;14.90;99.90;;;;;;5056817;28;20409;-82
2023/05/18 12:25:25;;;;;;;7.70;2.30;;;14.90;99.90;;;;;;5056753;28;20427;-82
2023/05/18 12:27:53;;;;;;;8.27;2.35;;;14.90;99.90;;;;;;5056708;28;20056;-83
2023/05/18 12:30:33;;;;;;;8.18;2.40;;;14.70;99.90;;;;;;5056917;28;20040;-82
2023/05/18 12:33:01;;;;;;;9.02;1.92;;;14.70;99.90;;;;;;5056959;28;20041;-81
2023/05/18 12:35:32;;;;;;;7.40;2.38;;;14.80;99.90;;;;;;5056832;28;20098;-81
2023/05/18 12:38:00;;;;;;;10.93;2.17;;;14.50;99.90;;;;;;5056497;28;20471;-82
2023/05/18 12:40:26;;;;;;;5.70;1.90;;;14.80;99.90;;;;;;5056568;28;20045;-82
2023/05/18 12:42:53;;;;;;;9.48;2.58;;;14.90;99.90;;;;;;5056447;28;20492;-82
2023/05/18 12:45:24;;;;;;;12.50;2.95;;;15.00;99.90;;;;;;5056806;28;20075;-80
2023/05/18 12:47:53;;;;;;;9.35;1.98;;;14.90;99.90;;;;;;5056577;28;20033;-83
2023/05/18 12:50:20;;;;;;;8.02;2.30;;;14.90;99.90;;;;;;5056357;28;20059;-83
2023/05/18 12:52:49;;;;;;;10.70;2.30;;;15.20;99.90;;;;;;5055258;28;20116;-82
2023/05/18 12:55:23;;;;;;;9.38;2.50;;;15.10;99.90;;;;;;5055021;28;20484;-82
2023/05/18 12:58:16;;;;;;;6.38;2.25;;;15.20;99.90;;;;;;5056478;28;20047;-82